createdAt,value
2019-03-02T00:00:48.884Z,97.13
2019-03-02T00:01:50.991Z,97.31
2019-03-02T00:02:48.839Z,97.6
2019-03-02T00:03:48.600Z,97.98
2019-03-02T00:04:51.492Z,97.6
2019-03-02T00:05:48.827Z,97.69
2019-03-02T00:06:48.837Z,97.98
2019-03-02T00:07:50.061Z,97.79
2019-03-02T00:08:48.810Z,97.31
2019-03-02T00:09:48.964Z,97.22
2019-03-02T00:10:48.795Z,96.94
2019-03-02T00:11:48.791Z,97.79
2019-03-02T00:12:48.783Z,97.88
2019-03-02T00:13:48.783Z,97.69
2019-03-02T00:14:50.668Z,97.79
2019-03-02T00:15:48.758Z,98.55
2019-03-02T00:16:48.525Z,98.74
2019-03-02T00:17:50.542Z,98.36
2019-03-02T00:18:48.738Z,98.17
2019-03-02T00:19:48.742Z,98.17
2019-03-02T00:20:55.366Z,98.74
2019-03-02T00:21:48.493Z,98.46
2019-03-02T00:22:48.488Z,98.17
2019-03-02T00:23:50.824Z,98.46
2019-03-02T00:24:48.701Z,98.46
2019-03-02T00:25:48.702Z,98.17
2019-03-02T00:26:49.100Z,98.08
2019-03-02T00:27:48.694Z,98.27
2019-03-02T00:28:48.674Z,98.74
2019-03-02T00:29:48.997Z,98.65
2019-03-02T00:30:48.427Z,98.36
2019-03-02T00:31:48.684Z,99.22
2019-03-02T00:32:48.652Z,99.12
2019-03-02T00:33:48.415Z,99.88
2019-03-02T00:34:48.396Z,98.88
2019-03-02T00:35:48.395Z,99.99
2019-03-02T00:36:50.938Z,99.99
2019-03-02T00:37:48.382Z,99.99
2019-03-02T00:38:48.625Z,99.99
2019-03-02T00:39:50.587Z,99.99
2019-03-02T00:40:48.366Z,99.99
2019-03-02T00:41:48.597Z,99.99
2019-03-02T00:42:51.866Z,99.99
2019-03-02T00:43:48.348Z,99.99
2019-03-02T00:44:48.332Z,99.99
2019-03-02T00:45:51.383Z,99.99
2019-03-02T00:46:48.322Z,99.99
2019-03-02T00:47:48.318Z,99.99
2019-03-02T00:48:49.166Z,99.99
2019-03-02T00:49:48.307Z,99.99
2019-03-02T00:50:48.541Z,99.99
2019-03-02T00:51:49.772Z,99.99
2019-03-02T00:52:49.115Z,99.99
2019-03-02T00:53:48.543Z,99.99
2019-03-02T00:55:00.091Z,99.99
2019-03-02T00:55:48.278Z,99.99
2019-03-02T00:56:48.518Z,99.99
2019-03-02T00:57:50.653Z,99.99
2019-03-02T00:58:48.505Z,99.99
2019-03-02T00:59:48.487Z,99.99
2019-03-02T01:00:49.886Z,99.99
2019-03-02T01:01:48.230Z,99.99
2019-03-02T01:02:48.474Z,99.99
2019-03-02T01:03:50.572Z,99.99
2019-03-02T01:04:48.458Z,99.99
2019-03-02T01:05:48.454Z,99.99
2019-03-02T01:06:51.413Z,99.99
2019-03-02T01:07:48.435Z,99.99
2019-03-02T01:08:48.435Z,99.99
2019-03-02T01:09:48.735Z,99.99
2019-03-02T01:10:48.174Z,99.99
2019-03-02T01:11:48.418Z,99.99
2019-03-02T01:12:48.156Z,99.99
2019-03-02T01:13:48.162Z,99.99
2019-03-02T01:14:48.155Z,99.99
2019-03-02T01:15:48.396Z,99.99
2019-03-02T01:16:51.631Z,99.99
2019-03-02T01:17:48.124Z,99.99
2019-03-02T01:18:48.369Z,99.99
2019-03-02T01:19:54.417Z,99.99
2019-03-02T01:20:48.361Z,99.99
2019-03-02T01:21:48.350Z,99.99
2019-03-02T01:22:51.752Z,99.99
2019-03-02T01:23:48.362Z,99.99
2019-03-02T01:24:48.340Z,99.99
2019-03-02T01:25:51.332Z,99.99
2019-03-02T01:26:48.328Z,99.99
2019-03-02T01:27:48.331Z,99.99
2019-03-02T01:28:48.067Z,99.99
2019-03-02T01:29:51.594Z,99.99
2019-03-02T01:30:49.117Z,99.99
2019-03-02T01:31:48.288Z,99.99
2019-03-02T01:32:54.613Z,99.99
2019-03-02T01:33:48.283Z,99.99
2019-03-02T01:34:48.275Z,99.99
2019-03-02T01:35:48.017Z,99.99
2019-03-02T01:36:48.019Z,99.99
2019-03-02T01:37:48.023Z,99.99
2019-03-02T01:38:50.569Z,99.99
2019-03-02T01:39:48.248Z,99.99
2019-03-02T01:40:48.244Z,99.99
2019-03-02T01:41:50.938Z,99.99
2019-03-02T01:42:48.231Z,99.99
2019-03-02T01:43:48.218Z,99.99
2019-03-02T01:44:51.621Z,99.99
2019-03-02T01:45:48.227Z,99.99
2019-03-02T01:46:48.200Z,99.99
2019-03-02T01:47:53.257Z,99.99
2019-03-02T01:48:47.940Z,99.99
2019-03-02T01:49:47.948Z,99.99
2019-03-02T01:50:50.110Z,99.99
2019-03-02T01:51:48.173Z,99.99
2019-03-02T01:52:47.922Z,99.99
2019-03-02T01:53:49.294Z,99.99
2019-03-02T01:54:47.914Z,99.99
2019-03-02T01:55:48.143Z,99.99
2019-03-02T01:56:48.156Z,99.99
2019-03-02T01:57:52.217Z,99.99
2019-03-02T01:58:47.877Z,99.99
2019-03-02T01:59:48.118Z,99.99
2019-03-02T02:00:51.628Z,99.99
2019-03-02T02:01:47.870Z,99.99
2019-03-02T02:02:48.093Z,99.99
2019-03-02T02:03:49.670Z,99.99
2019-03-02T02:04:48.088Z,99.99
2019-03-02T02:05:48.086Z,99.99
2019-03-02T02:06:48.069Z,99.99
2019-03-02T02:07:53.437Z,99.99
2019-03-02T02:08:48.063Z,99.99
2019-03-02T02:09:48.079Z,99.99
2019-03-02T02:10:48.049Z,99.99
2019-03-02T02:11:49.729Z,99.99
2019-03-02T02:12:47.797Z,99.99
2019-03-02T02:13:48.041Z,99.99
2019-03-02T02:14:50.861Z,99.99
2019-03-02T02:15:48.019Z,99.99
2019-03-02T02:16:47.766Z,99.99
2019-03-02T02:17:49.506Z,99.99
2019-03-02T02:18:47.755Z,99.99
2019-03-02T02:19:47.755Z,99.99
2019-03-02T02:20:50.253Z,99.99
2019-03-02T02:21:47.739Z,99.99
2019-03-02T02:22:48.020Z,99.99
2019-03-02T02:23:52.031Z,99.99
2019-03-02T02:24:47.712Z,99.99
2019-03-02T02:25:47.708Z,99.99
2019-03-02T02:26:49.369Z,99.99
2019-03-02T02:27:47.704Z,99.99
2019-03-02T02:28:47.956Z,99.99
2019-03-02T02:29:47.690Z,99.99
2019-03-02T02:30:47.940Z,99.99
2019-03-02T02:31:48.916Z,99.99
2019-03-02T02:32:47.934Z,99.99
2019-03-02T02:33:47.916Z,99.99
2019-03-02T02:34:47.912Z,99.99
2019-03-02T02:35:47.903Z,99.99
2019-03-02T02:36:47.889Z,99.99
2019-03-02T02:37:47.893Z,99.99
2019-03-02T02:38:56.577Z,99.99
2019-03-02T02:39:47.877Z,99.99
2019-03-02T02:40:47.886Z,99.99
2019-03-02T02:41:47.622Z,99.99
2019-03-02T02:42:47.863Z,99.99
2019-03-02T02:43:47.873Z,99.99
2019-03-02T02:44:47.840Z,99.99
2019-03-02T02:45:55.540Z,99.99
2019-03-02T02:46:47.837Z,99.99
2019-03-02T02:47:54.250Z,99.99
2019-03-02T02:48:47.815Z,99.99
2019-03-02T02:49:51.815Z,99.99
2019-03-02T02:50:47.811Z,99.99
2019-03-02T02:51:51.896Z,99.99
2019-03-02T02:52:47.787Z,99.99
2019-03-02T02:53:49.468Z,99.99
2019-03-02T02:54:47.778Z,99.99
2019-03-02T02:55:47.767Z,99.99
2019-03-02T02:56:47.777Z,99.99
2019-03-02T02:57:47.759Z,99.99
2019-03-02T02:58:55.246Z,99.99
2019-03-02T02:59:47.827Z,99.99
2019-03-02T03:00:56.957Z,99.99
2019-03-02T03:01:47.724Z,99.99
2019-03-02T03:02:47.477Z,99.99
2019-03-02T03:03:47.725Z,99.99
2019-03-02T03:04:47.491Z,99.84
2019-03-02T03:05:53.922Z,99.99
2019-03-02T03:06:47.699Z,98.5
2019-03-02T03:07:55.869Z,97.55
2019-03-02T03:08:47.726Z,97.45
2019-03-02T03:09:51.936Z,98.41
2019-03-02T03:10:47.676Z,98.41
2019-03-02T03:11:47.992Z,99.36
2019-03-02T03:12:47.665Z,99.07
2019-03-02T03:13:47.409Z,99.64
2019-03-02T03:14:47.647Z,99.74
2019-03-02T03:15:47.642Z,99.26
2019-03-02T03:16:49.340Z,98.79
2019-03-02T03:17:47.639Z,99.16
2019-03-02T03:18:52.092Z,98.22
2019-03-02T03:19:47.378Z,98.41
2019-03-02T03:20:52.384Z,98.69
2019-03-02T03:21:47.600Z,99.55
2019-03-02T03:22:48.790Z,99.64
2019-03-02T03:23:47.600Z,99.07
2019-03-02T03:24:47.586Z,99.07
2019-03-02T03:25:55.870Z,99.26
2019-03-02T03:26:47.578Z,99.84
2019-03-02T03:27:51.715Z,99.99
2019-03-02T03:28:47.378Z,99.99
2019-03-02T03:29:52.051Z,99.84
2019-03-02T03:30:47.590Z,99.99
2019-03-02T03:31:47.581Z,99.99
2019-03-02T03:32:59.426Z,99.99
2019-03-02T03:33:49.835Z,99.99
2019-03-02T03:34:47.552Z,99.99
2019-03-02T03:35:51.619Z,99.93
2019-03-02T03:36:47.526Z,99.99
2019-03-02T03:37:53.224Z,99.99
2019-03-02T03:38:47.495Z,99.93
2019-03-02T03:39:48.962Z,99.99
2019-03-02T03:40:47.487Z,99.99
2019-03-02T03:41:47.277Z,99.99
2019-03-02T03:42:47.478Z,99.99
2019-03-02T03:43:47.488Z,99.99
2019-03-02T03:44:47.462Z,99.93
2019-03-02T03:45:47.574Z,99.93
2019-03-02T03:46:47.456Z,99.99
2019-03-02T03:47:47.469Z,99.99
2019-03-02T03:48:51.213Z,99.99
2019-03-02T03:49:47.190Z,99.99
2019-03-02T03:50:52.281Z,99.99
2019-03-02T03:51:47.423Z,99.99
2019-03-02T03:52:51.561Z,99.99
2019-03-02T03:53:47.435Z,99.99
2019-03-02T03:54:48.798Z,99.64
2019-03-02T03:55:47.397Z,99.07
2019-03-02T03:56:47.154Z,99.64
2019-03-02T03:57:47.390Z,99.36
2019-03-02T03:58:47.398Z,99.26
2019-03-02T03:59:47.368Z,99.07
2019-03-02T04:00:47.363Z,99.93
2019-03-02T04:01:51.999Z,99.99
2019-03-02T04:02:47.353Z,99.99
2019-03-02T04:03:53.468Z,99.99
2019-03-02T04:04:47.339Z,99.84
2019-03-02T04:05:49.393Z,98.88
2019-03-02T04:06:47.331Z,99.36
2019-03-02T04:07:52.275Z,98.88
2019-03-02T04:08:47.329Z,99.55
2019-03-02T04:09:49.341Z,99.93
2019-03-02T04:10:47.312Z,99.16
2019-03-02T04:11:47.298Z,99.16
2019-03-02T04:12:47.326Z,99.74
2019-03-02T04:13:49.059Z,99.74
2019-03-02T04:14:47.282Z,99.93
2019-03-02T04:15:47.266Z,99.74
2019-03-02T04:16:47.261Z,99.84
2019-03-02T04:17:47.252Z,99.99
2019-03-02T04:18:50.029Z,99.99
2019-03-02T04:19:47.245Z,99.93
2019-03-02T04:20:51.730Z,99.99
2019-03-02T04:21:47.237Z,99.84
2019-03-02T04:22:48.444Z,99.74
2019-03-02T04:23:46.973Z,99.07
2019-03-02T04:24:47.231Z,99.07
2019-03-02T04:25:46.966Z,98.88
2019-03-02T04:26:47.198Z,98.41
2019-03-02T04:27:56.291Z,97.27
2019-03-02T04:28:47.186Z,97.17
2019-03-02T04:29:55.210Z,97.93
2019-03-02T04:30:47.187Z,97.45
2019-03-02T04:31:52.386Z,98.31
2019-03-02T04:32:46.913Z,98.5
2019-03-02T04:33:47.167Z,98.41
2019-03-02T04:34:47.165Z,98.22
2019-03-02T04:35:47.148Z,97.64
2019-03-02T04:36:49.994Z,97.64
2019-03-02T04:37:47.134Z,97.08
2019-03-02T04:38:46.906Z,97.36
2019-03-02T04:39:49.945Z,97.08
2019-03-02T04:40:47.112Z,96.89
2019-03-02T04:41:46.865Z,96.98
2019-03-02T04:42:50.090Z,96.69
2019-03-02T04:43:47.087Z,95.94
2019-03-02T04:44:46.841Z,95.65
2019-03-02T04:45:47.079Z,95.27
2019-03-02T04:46:51.269Z,95.17
2019-03-02T04:47:47.064Z,95.56
2019-03-02T04:48:47.063Z,94.32
2019-03-02T04:49:51.353Z,93.84
2019-03-02T04:50:47.045Z,93.84
2019-03-02T04:51:47.040Z,93.46
2019-03-02T04:52:49.906Z,93.65
2019-03-02T04:53:47.029Z,93.65
2019-03-02T04:54:46.781Z,94.51
2019-03-02T04:55:48.507Z,94.7
2019-03-02T04:56:47.020Z,94.89
2019-03-02T04:57:47.017Z,94.22
2019-03-02T04:58:49.427Z,94.7
2019-03-02T04:59:46.995Z,94.7
2019-03-02T05:00:46.993Z,94.7
2019-03-02T05:01:48.667Z,94.13
2019-03-02T05:02:46.970Z,94.13
2019-03-02T05:03:46.980Z,94.03
2019-03-02T05:04:46.964Z,94.7
2019-03-02T05:05:46.966Z,94.89
2019-03-02T05:06:46.699Z,95.17
2019-03-02T05:07:46.712Z,95.46
2019-03-02T05:08:46.941Z,95.17
2019-03-02T05:09:48.498Z,95.65
2019-03-02T05:10:46.941Z,95.17
2019-03-02T05:11:46.914Z,95.17
2019-03-02T05:12:49.628Z,95.84
2019-03-02T05:13:46.654Z,95.08
2019-03-02T05:14:46.644Z,95.08
2019-03-02T05:15:48.875Z,95.75
2019-03-02T05:16:46.885Z,96.03
2019-03-02T05:17:46.879Z,96.31
2019-03-02T05:18:49.673Z,95.94
2019-03-02T05:19:46.627Z,95.75
2019-03-02T05:20:46.621Z,94.51
2019-03-02T05:21:46.629Z,93.46
2019-03-02T05:22:46.871Z,93.55
2019-03-02T05:23:46.848Z,94.22
2019-03-02T05:24:46.857Z,95.27
2019-03-02T05:25:46.837Z,95.65
2019-03-02T05:26:46.826Z,95.36
2019-03-02T05:27:46.819Z,96.03
2019-03-02T05:28:46.811Z,95.65
2019-03-02T05:29:46.802Z,96.5
2019-03-02T05:30:46.813Z,97.45
2019-03-02T05:31:46.794Z,97.45
2019-03-02T05:32:51.210Z,98.41
2019-03-02T05:33:46.793Z,98.69
2019-03-02T05:34:46.781Z,98.88
2019-03-02T05:35:50.817Z,99.45
2019-03-02T05:36:46.526Z,99.36
2019-03-02T05:37:46.784Z,99.99
2019-03-02T05:38:46.931Z,99.99
2019-03-02T05:39:49.482Z,99.99
2019-03-02T05:40:46.485Z,99.99
2019-03-02T05:41:46.734Z,99.99
2019-03-02T05:42:52.569Z,99.99
2019-03-02T05:43:46.475Z,99.99
2019-03-02T05:44:46.718Z,99.99
2019-03-02T05:45:46.709Z,99.99
2019-03-02T05:46:46.718Z,99.99
2019-03-02T05:47:46.721Z,99.99
2019-03-02T05:48:46.803Z,99.99
2019-03-02T05:49:46.447Z,99.99
2019-03-02T05:50:46.680Z,99.99
2019-03-02T05:51:46.423Z,99.99
2019-03-02T05:52:46.662Z,99.99
2019-03-02T05:53:46.662Z,99.99
2019-03-02T05:54:46.661Z,99.99
2019-03-02T05:55:46.395Z,99.99
2019-03-02T05:56:47.187Z,99.99
2019-03-02T05:57:46.628Z,99.99
2019-03-02T05:58:47.636Z,99.99
2019-03-02T05:59:46.615Z,99.99
2019-03-02T06:00:46.362Z,99.99
2019-03-02T06:01:46.361Z,99.99
2019-03-02T06:02:46.633Z,99.99
2019-03-02T06:03:48.581Z,99.99
2019-03-02T06:04:48.310Z,99.99
2019-03-02T06:05:46.589Z,99.99
2019-03-02T06:06:46.574Z,99.99
2019-03-02T06:07:46.572Z,99.99
2019-03-02T06:08:46.561Z,99.99
2019-03-02T06:09:50.099Z,99.99
2019-03-02T06:10:46.293Z,99.93
2019-03-02T06:11:46.543Z,99.07
2019-03-02T06:12:47.861Z,99.99
2019-03-02T06:13:46.536Z,99.99
2019-03-02T06:14:46.274Z,99.99
2019-03-02T06:15:48.921Z,99.99
2019-03-02T06:16:46.518Z,99.99
2019-03-02T06:17:46.526Z,99.99
2019-03-02T06:18:47.838Z,99.99
2019-03-02T06:19:46.245Z,99.99
2019-03-02T06:20:47.130Z,99.99
2019-03-02T06:21:48.800Z,99.99
2019-03-02T06:22:46.225Z,99.99
2019-03-02T06:23:46.219Z,99.99
2019-03-02T06:24:46.208Z,99.99
2019-03-02T06:25:46.451Z,99.99
2019-03-02T06:26:46.461Z,99.99
2019-03-02T06:27:49.740Z,99.99
2019-03-02T06:28:46.433Z,99.99
2019-03-02T06:29:46.427Z,99.99
2019-03-02T06:30:47.382Z,99.99
2019-03-02T06:31:46.161Z,99.99
2019-03-02T06:32:46.412Z,99.99
2019-03-02T06:33:47.669Z,99.99
2019-03-02T06:34:46.397Z,99.99
2019-03-02T06:35:46.401Z,99.99
2019-03-02T06:36:47.170Z,99.99
2019-03-02T06:37:46.403Z,99.99
2019-03-02T06:38:46.389Z,99.99
2019-03-02T06:39:46.951Z,99.99
2019-03-02T06:40:46.351Z,99.99
2019-03-02T06:41:46.348Z,99.99
2019-03-02T06:42:48.093Z,99.99
2019-03-02T06:43:46.346Z,99.99
2019-03-02T06:44:46.327Z,99.99
2019-03-02T06:45:46.800Z,99.99
2019-03-02T06:46:46.330Z,99.99
2019-03-02T06:47:46.073Z,99.99
2019-03-02T06:48:47.370Z,99.99
2019-03-02T06:49:46.305Z,99.99
2019-03-02T06:50:46.043Z,99.99
2019-03-02T06:51:49.606Z,99.99
2019-03-02T06:52:46.304Z,99.99
2019-03-02T06:53:46.026Z,99.99
2019-03-02T06:54:48.259Z,99.99
2019-03-02T06:55:46.273Z,99.99
2019-03-02T06:56:46.282Z,99.99
2019-03-02T06:57:51.662Z,99.99
2019-03-02T06:58:46.250Z,99.99
2019-03-02T06:59:46.241Z,99.99
2019-03-02T07:00:48.829Z,99.99
2019-03-02T07:01:47.192Z,99.99
2019-03-02T07:02:46.226Z,99.99
2019-03-02T07:03:49.126Z,99.99
2019-03-02T07:04:45.973Z,99.99
2019-03-02T07:05:46.209Z,99.99
2019-03-02T07:06:49.360Z,99.99
2019-03-02T07:07:46.214Z,99.99
2019-03-02T07:08:45.934Z,99.99
2019-03-02T07:09:47.508Z,99.99
2019-03-02T07:10:46.215Z,99.99
2019-03-02T07:11:46.180Z,99.99
2019-03-02T07:12:48.311Z,99.99
2019-03-02T07:13:46.156Z,99.99
2019-03-02T07:14:46.151Z,99.99
2019-03-02T07:15:47.400Z,99.99
2019-03-02T07:16:46.129Z,99.99
2019-03-02T07:17:46.142Z,99.99
2019-03-02T07:18:45.872Z,99.99
2019-03-02T07:19:48.548Z,99.99
2019-03-02T07:20:46.102Z,99.99
2019-03-02T07:21:46.098Z,99.99
2019-03-02T07:22:48.581Z,99.99
2019-03-02T07:23:46.099Z,99.99
2019-03-02T07:24:45.864Z,99.99
2019-03-02T07:25:46.732Z,99.99
2019-03-02T07:26:46.077Z,99.99
2019-03-02T07:27:46.070Z,99.99
2019-03-02T07:28:45.815Z,99.99
2019-03-02T07:29:45.807Z,99.99
2019-03-02T07:30:46.052Z,99.99
2019-03-02T07:31:46.038Z,99.99
2019-03-02T07:32:46.054Z,99.99
2019-03-02T07:33:46.025Z,99.99
2019-03-02T07:34:46.961Z,99.99
2019-03-02T07:35:45.773Z,99.99
2019-03-02T07:36:45.787Z,99.99
2019-03-02T07:37:47.392Z,99.99
2019-03-02T07:38:45.990Z,99.99
2019-03-02T07:39:45.743Z,99.99
2019-03-02T07:40:48.025Z,99.99
2019-03-02T07:41:45.983Z,99.99
2019-03-02T07:42:45.739Z,99.99
2019-03-02T07:43:49.001Z,99.99
2019-03-02T07:44:45.716Z,99.99
2019-03-02T07:45:45.946Z,99.99
2019-03-02T07:46:47.866Z,99.99
2019-03-02T07:47:45.946Z,99.99
2019-03-02T07:48:45.937Z,99.99
2019-03-02T07:49:49.755Z,99.99
2019-03-02T07:50:45.923Z,99.99
2019-03-02T07:51:45.912Z,99.99
2019-03-02T07:52:45.684Z,99.99
2019-03-02T07:53:45.662Z,99.99
2019-03-02T07:54:55.435Z,99.99
2019-03-02T07:55:45.644Z,99.99
2019-03-02T07:56:45.884Z,99.99
2019-03-02T07:57:46.297Z,99.99
2019-03-02T07:58:45.628Z,99.99
2019-03-02T07:59:45.873Z,99.99
2019-03-02T08:00:45.871Z,99.99
2019-03-02T08:01:48.720Z,99.99
2019-03-02T08:02:45.866Z,99.99
2019-03-02T08:03:45.591Z,99.99
2019-03-02T08:04:45.589Z,99.99
2019-03-02T08:05:50.693Z,99.99
2019-03-02T08:06:45.840Z,99.99
2019-03-02T08:07:45.832Z,99.99
2019-03-02T08:08:49.193Z,99.99
2019-03-02T08:09:45.806Z,99.99
2019-03-02T08:10:45.550Z,99.99
2019-03-02T08:11:48.946Z,99.99
2019-03-02T08:12:45.791Z,99.98
2019-03-02T08:13:45.545Z,99.99
2019-03-02T08:14:47.785Z,99.99
2019-03-02T08:15:46.498Z,99.99
2019-03-02T08:16:45.540Z,99.84
2019-03-02T08:17:48.983Z,99.64
2019-03-02T08:18:45.506Z,99.16
2019-03-02T08:19:48.389Z,99.16
2019-03-02T08:20:45.744Z,99.99
2019-03-02T08:21:45.737Z,99.93
2019-03-02T08:22:48.758Z,99.98
2019-03-02T08:23:45.734Z,99.99
2019-03-02T08:24:46.310Z,99.84
2019-03-02T08:25:45.459Z,99.07
2019-03-02T08:26:45.461Z,98.97
2019-03-02T08:27:45.707Z,98.88
2019-03-02T08:28:48.314Z,99.16
2019-03-02T08:29:45.741Z,98.97
2019-03-02T08:30:45.682Z,99.07
2019-03-02T08:31:48.158Z,99.26
2019-03-02T08:32:45.427Z,99.45
2019-03-02T08:33:48.548Z,98.97
2019-03-02T08:34:48.802Z,98.69
2019-03-02T08:35:45.397Z,97.64
2019-03-02T08:36:45.667Z,97.5
2019-03-02T08:37:45.635Z,97.69
2019-03-02T08:38:45.627Z,97.69
2019-03-02T08:39:49.170Z,97.6
2019-03-02T08:40:46.309Z,98.36
2019-03-02T08:41:45.628Z,98.27
2019-03-02T08:42:45.615Z,97.5
2019-03-02T08:43:45.651Z,97.98
2019-03-02T08:44:45.594Z,97.41
2019-03-02T08:45:45.591Z,97.41
2019-03-02T08:46:45.587Z,96.84
2019-03-02T08:47:45.347Z,96.46
2019-03-02T08:48:45.569Z,96.55
2019-03-02T08:49:45.334Z,96.08
2019-03-02T08:50:45.696Z,96.08
2019-03-02T08:51:45.577Z,96.17
2019-03-02T08:52:45.543Z,96.55
2019-03-02T08:53:45.289Z,96.36
2019-03-02T08:54:45.281Z,96.22
2019-03-02T08:55:45.534Z,95.84
2019-03-02T08:56:47.628Z,95.17
2019-03-02T08:57:45.518Z,95.56
2019-03-02T08:58:45.269Z,94.7
2019-03-02T08:59:45.515Z,94.51
2019-03-02T09:00:45.422Z,94.79
2019-03-02T09:01:45.494Z,94.51
2019-03-02T09:02:45.505Z,93.74
2019-03-02T09:03:45.503Z,94.32
2019-03-02T09:04:47.194Z,94.51
2019-03-02T09:05:55.456Z,95.46
2019-03-02T09:06:45.468Z,95.56
2019-03-02T09:07:46.017Z,95.56
2019-03-02T09:08:45.467Z,95.46
2019-03-02T09:09:45.467Z,93.74
2019-03-02T09:10:49.111Z,93.55
2019-03-02T09:11:47.702Z,92.79
2019-03-02T09:12:45.441Z,93.37
2019-03-02T09:13:45.475Z,93.46
2019-03-02T09:14:48.969Z,92.03
2019-03-02T09:15:45.659Z,91.31
2019-03-02T09:16:45.169Z,90.8
2019-03-02T09:17:45.414Z,91.37
2019-03-02T09:18:48.245Z,90.84
2019-03-02T09:19:45.413Z,90.94
2019-03-02T09:20:45.152Z,89.98
2019-03-02T09:21:47.896Z,89.03
2019-03-02T09:22:45.385Z,88.65
2019-03-02T09:23:45.143Z,88.65
2019-03-02T09:24:51.229Z,88.65
2019-03-02T09:25:45.147Z,88.56
2019-03-02T09:26:45.374Z,88.56
2019-03-02T09:27:45.113Z,88.65
2019-03-02T09:28:45.112Z,88.75
2019-03-02T09:29:45.106Z,89.61
2019-03-02T09:30:45.358Z,90.36
2019-03-02T09:31:46.780Z,91.22
2019-03-02T09:32:46.952Z,90.84
2019-03-02T09:33:45.343Z,91.89
2019-03-02T09:34:45.101Z,91.22
2019-03-02T09:35:45.109Z,89.32
2019-03-02T09:36:45.776Z,89.22
2019-03-02T09:37:46.362Z,89.03
2019-03-02T09:38:45.062Z,89.7
2019-03-02T09:39:45.309Z,88.79
2019-03-02T09:40:49.076Z,89.03
2019-03-02T09:41:47.473Z,88.6
2019-03-02T09:42:45.305Z,87.93
2019-03-02T09:43:45.047Z,88.89
2019-03-02T09:44:45.296Z,87.36
2019-03-02T09:45:48.012Z,87.17
2019-03-02T09:46:45.298Z,86.32
2019-03-02T09:47:47.492Z,87.74
2019-03-02T09:48:45.272Z,87.93
2019-03-02T09:49:45.263Z,87.27
2019-03-02T09:50:45.014Z,88.7
2019-03-02T09:51:48.176Z,88.6
2019-03-02T09:52:45.712Z,88.89
2019-03-02T09:53:46.147Z,88.41
2019-03-02T09:54:44.999Z,88.03
2019-03-02T09:55:45.238Z,87.84
2019-03-02T09:56:45.238Z,87.46
2019-03-02T09:57:49.818Z,86.51
2019-03-02T09:58:45.229Z,86.45
2019-03-02T09:59:48.659Z,85.97
2019-03-02T10:00:45.232Z,85.69
2019-03-02T10:01:45.220Z,85.02
2019-03-02T10:02:46.359Z,85.02
2019-03-02T10:03:45.224Z,84.55
2019-03-02T10:04:45.206Z,84.74
2019-03-02T10:05:46.506Z,84.45
2019-03-02T10:06:45.207Z,84.45
2019-03-02T10:07:45.188Z,85.5
2019-03-02T10:08:48.841Z,84.55
2019-03-02T10:09:44.956Z,84.83
2019-03-02T10:10:44.933Z,85.21
2019-03-02T10:11:45.180Z,85.88
2019-03-02T10:12:47.129Z,86.45
2019-03-02T10:13:45.170Z,85.21
2019-03-02T10:14:45.168Z,85.12
2019-03-02T10:15:45.180Z,85.31
2019-03-02T10:16:45.170Z,84.55
2019-03-02T10:17:45.172Z,85.31
2019-03-02T10:18:49.609Z,85.02
2019-03-02T10:19:45.151Z,85.41
2019-03-02T10:20:46.078Z,85.31
2019-03-02T10:21:49.202Z,86.45
2019-03-02T10:22:44.900Z,86.36
2019-03-02T10:23:45.350Z,86.26
2019-03-02T10:24:45.134Z,85.31
2019-03-02T10:25:45.127Z,85.5
2019-03-02T10:26:46.403Z,85.12
2019-03-02T10:27:46.860Z,85.08
2019-03-02T10:28:44.867Z,84.88
2019-03-02T10:29:48.106Z,85.97
2019-03-02T10:30:45.104Z,86.03
2019-03-02T10:31:47.121Z,86.12
2019-03-02T10:32:45.131Z,85.97
2019-03-02T10:33:45.104Z,85.21
2019-03-02T10:34:45.391Z,84.74
2019-03-02T10:35:45.089Z,84.45
2019-03-02T10:36:45.090Z,85.02
2019-03-02T10:37:45.845Z,85.21
2019-03-02T10:38:44.842Z,85.02
2019-03-02T10:39:45.082Z,85.08
2019-03-02T10:40:47.242Z,85.31
2019-03-02T10:41:45.065Z,86.41
2019-03-02T10:42:45.075Z,85.97
2019-03-02T10:43:47.511Z,85.31
2019-03-02T10:44:45.061Z,85.41
2019-03-02T10:45:45.107Z,85.41
2019-03-02T10:46:45.060Z,86.26
2019-03-02T10:47:45.052Z,85.78
2019-03-02T10:48:45.048Z,85.78
2019-03-02T10:49:50.148Z,85.41
2019-03-02T10:50:47.187Z,85.12
2019-03-02T10:51:44.781Z,84.36
2019-03-02T10:52:48.842Z,84.16
2019-03-02T10:53:45.042Z,83.02
2019-03-02T10:54:45.034Z,82.73
2019-03-02T10:55:50.100Z,82.92
2019-03-02T10:56:45.012Z,83.97
2019-03-02T10:57:45.010Z,84.55
2019-03-02T10:58:45.822Z,84.36
2019-03-02T10:59:47.729Z,83.5
2019-03-02T11:00:44.998Z,83.12
2019-03-02T11:01:46.207Z,83.97
2019-03-02T11:02:44.999Z,84.22
2019-03-02T11:03:45.001Z,84.64
2019-03-02T11:04:47.135Z,84.16
2019-03-02T11:05:44.740Z,84.64
2019-03-02T11:06:44.968Z,84.45
2019-03-02T11:07:48.782Z,83.78
2019-03-02T11:08:44.974Z,84.45
2019-03-02T11:09:44.963Z,84.92
2019-03-02T11:10:44.960Z,85.12
2019-03-02T11:11:44.957Z,85.55
2019-03-02T11:12:46.057Z,85.31
2019-03-02T11:13:45.736Z,85.78
2019-03-02T11:14:44.940Z,85.21
2019-03-02T11:15:45.786Z,84.74
2019-03-02T11:16:47.748Z,84.55
2019-03-02T11:17:44.930Z,84.55
2019-03-02T11:18:44.697Z,84.55
2019-03-02T11:19:47.323Z,84.26
2019-03-02T11:20:44.922Z,85.12
2019-03-02T11:21:44.947Z,85.6
2019-03-02T11:22:44.922Z,84.16
2019-03-02T11:23:44.911Z,83.78
2019-03-02T11:24:44.911Z,84.36
2019-03-02T11:25:44.653Z,83.5
2019-03-02T11:26:44.899Z,83.5
2019-03-02T11:27:49.569Z,82.92
2019-03-02T11:28:44.907Z,83.31
2019-03-02T11:29:53.419Z,83.02
2019-03-02T11:30:44.894Z,83.12
2019-03-02T11:31:47.579Z,83.88
2019-03-02T11:32:44.898Z,83.97
2019-03-02T11:33:46.548Z,84.45
2019-03-02T11:34:44.879Z,83.78
2019-03-02T11:35:44.874Z,83.5
2019-03-02T11:36:49.306Z,83.97
2019-03-02T11:37:44.857Z,83.59
2019-03-02T11:38:44.864Z,82.97
2019-03-02T11:39:44.860Z,82.3
2019-03-02T11:40:44.610Z,81.92
2019-03-02T11:41:44.603Z,81.73
2019-03-02T11:42:45.209Z,82.87
2019-03-02T11:43:44.597Z,82.49
2019-03-02T11:44:44.845Z,82.59
2019-03-02T11:45:44.847Z,82.4
2019-03-02T11:46:44.592Z,81.73
2019-03-02T11:47:47.217Z,81.48
2019-03-02T11:48:47.665Z,81.67
2019-03-02T11:49:44.835Z,81.96
2019-03-02T11:50:46.778Z,81.1
2019-03-02T11:51:44.823Z,80.05
2019-03-02T11:52:44.885Z,79.96
2019-03-02T11:53:44.820Z,79.1
2019-03-02T11:54:44.563Z,78.91
2019-03-02T11:55:44.833Z,78.18
2019-03-02T11:56:48.002Z,78.47
2019-03-02T11:57:44.805Z,78.37
2019-03-02T11:58:44.799Z,77.57
2019-03-02T11:59:47.873Z,77.7
2019-03-02T12:00:44.800Z,77.51
2019-03-02T12:01:44.801Z,77.19
2019-03-02T12:02:44.545Z,77.89
2019-03-02T12:03:44.796Z,78.18
2019-03-02T12:04:44.788Z,78.18
2019-03-02T12:05:44.791Z,77.03
2019-03-02T12:06:44.545Z,76.56
2019-03-02T12:07:47.955Z,76.46
2019-03-02T12:08:44.778Z,76.12
2019-03-02T12:09:44.529Z,77.17
2019-03-02T12:10:44.778Z,74.49
2019-03-02T12:11:48.774Z,74.4
2019-03-02T12:12:44.767Z,74.69
2019-03-02T12:13:44.764Z,74.98
2019-03-02T12:14:46.217Z,74.98
2019-03-02T12:15:45.846Z,75.26
2019-03-02T12:16:44.519Z,74.4
2019-03-02T12:17:44.766Z,72.87
2019-03-02T12:18:44.509Z,72.3
2019-03-02T12:19:44.754Z,73.25
2019-03-02T12:20:47.652Z,74.21
2019-03-02T12:21:44.758Z,73.44
2019-03-02T12:22:44.501Z,73.16
2019-03-02T12:23:44.501Z,73.54
2019-03-02T12:24:44.746Z,73.63
2019-03-02T12:25:44.503Z,73.16
2019-03-02T12:26:46.315Z,72.11
2019-03-02T12:27:44.494Z,71.25
2019-03-02T12:28:44.748Z,71.44
2019-03-02T12:29:49.588Z,71.63
2019-03-02T12:30:44.744Z,71.82
2019-03-02T12:31:44.733Z,73.73
2019-03-02T12:32:46.906Z,74.59
2019-03-02T12:33:44.724Z,75.26
2019-03-02T12:34:44.788Z,74.11
2019-03-02T12:35:44.732Z,73.73
2019-03-02T12:36:44.730Z,72.97
2019-03-02T12:37:44.476Z,72.78
2019-03-02T12:38:47.955Z,72.49
2019-03-02T12:39:44.717Z,72.58
2019-03-02T12:40:44.478Z,71.63
2019-03-02T12:41:44.470Z,71.44
2019-03-02T12:42:44.716Z,71.44
2019-03-02T12:43:46.608Z,70.87
2019-03-02T12:44:44.712Z,71.15
2019-03-02T12:45:44.704Z,71.34
2019-03-02T12:46:47.863Z,70.29
2019-03-02T12:47:44.452Z,70.87
2019-03-02T12:48:44.452Z,71.06
2019-03-02T12:49:46.990Z,71.25
2019-03-02T12:50:44.696Z,71.06
2019-03-02T12:51:44.701Z,71.15
2019-03-02T12:52:48.023Z,71.25
2019-03-02T12:53:44.446Z,71.53